sensor_id;sensor_type;location;lat;lon;timestamp;P1;durP1;ratioP1;P2;durP2;ratioP2
10162;SDS011;5123;52.556;13.384;2023-02-15T00:00:42;31.13;;;20.10;;
10162;SDS011;5123;52.556;13.384;2023-02-15T00:03:15;28.63;;;20.33;;
10162;SDS011;5123;52.556;13.384;2023-02-15T00:05:48;36.30;;;22.43;;
10162;SDS011;5123;52.556;13.384;2023-02-15T00:08:24;31.80;;;19.83;;
10162;SDS011;5123;52.556;13.384;2023-02-15T00:11:06;32.93;;;21.37;;
10162;SDS011;5123;52.556;13.384;2023-02-15T00:13:38;33.07;;;20.87;;
10162;SDS011;5123;52.556;13.384;2023-02-15T00:16:13;35.50;;;21.40;;
10162;SDS011;5123;52.556;13.384;2023-02-15T00:18:46;33.83;;;21.23;;
10162;SDS011;5123;52.556;13.384;2023-02-15T00:21:19;32.83;;;22.07;;
10162;SDS011;5123;52.556;13.384;2023-02-15T00:23:51;31.20;;;21.37;;
10162;SDS011;5123;52.556;13.384;2023-02-15T00:26:28;38.27;;;23.53;;
10162;SDS011;5123;52.556;13.384;2023-02-15T00:29:01;36.13;;;22.23;;
10162;SDS011;5123;52.556;13.384;2023-02-15T00:31:34;34.10;;;22.97;;
10162;SDS011;5123;52.556;13.384;2023-02-15T00:34:11;33.83;;;21.37;;
10162;SDS011;5123;52.556;13.384;2023-02-15T00:36:44;35.07;;;23.10;;
10162;SDS011;5123;52.556;13.384;2023-02-15T00:39:17;35.73;;;22.67;;
10162;SDS011;5123;52.556;13.384;2023-02-15T00:41:51;37.40;;;22.57;;
10162;SDS011;5123;52.556;13.384;2023-02-15T00:44:24;38.80;;;23.40;;
10162;SDS011;5123;52.556;13.384;2023-02-15T00:46:57;36.57;;;23.00;;
10162;SDS011;5123;52.556;13.384;2023-02-15T00:49:30;33.83;;;21.70;;
10162;SDS011;5123;52.556;13.384;2023-02-15T00:52:02;37.67;;;22.67;;
10162;SDS011;5123;52.556;13.384;2023-02-15T00:54:35;37.77;;;22.77;;
10162;SDS011;5123;52.556;13.384;2023-02-15T00:57:13;36.33;;;22.77;;
10162;SDS011;5123;52.556;13.384;2023-02-15T00:59:46;38.77;;;23.53;;
10162;SDS011;5123;52.556;13.384;2023-02-15T01:02:19;36.70;;;22.90;;
10162;SDS011;5123;52.556;13.384;2023-02-15T01:04:52;36.43;;;22.47;;
10162;SDS011;5123;52.556;13.384;2023-02-15T01:07:25;37.23;;;22.97;;
10162;SDS011;5123;52.556;13.384;2023-02-15T01:10:02;35.70;;;22.87;;
10162;SDS011;5123;52.556;13.384;2023-02-15T01:12:37;39.30;;;23.37;;
10162;SDS011;5123;52.556;13.384;2023-02-15T01:15:09;37.27;;;22.97;;
10162;SDS011;5123;52.556;13.384;2023-02-15T01:17:42;35.63;;;22.93;;
10162;SDS011;5123;52.556;13.384;2023-02-15T01:20:17;38.60;;;23.03;;
10162;SDS011;5123;52.556;13.384;2023-02-15T01:22:50;40.77;;;23.20;;
10162;SDS011;5123;52.556;13.384;2023-02-15T01:25:24;36.77;;;23.73;;
10162;SDS011;5123;52.556;13.384;2023-02-15T01:27:58;41.43;;;23.67;;
10162;SDS011;5123;52.556;13.384;2023-02-15T01:30:31;37.23;;;22.47;;
10162;SDS011;5123;52.556;13.384;2023-02-15T01:33:07;40.77;;;23.87;;
10162;SDS011;5123;52.556;13.384;2023-02-15T01:35:55;39.03;;;24.00;;
10162;SDS011;5123;52.556;13.384;2023-02-15T01:38:28;40.53;;;23.93;;
10162;SDS011;5123;52.556;13.384;2023-02-15T01:41:03;37.47;;;24.50;;
10162;SDS011;5123;52.556;13.384;2023-02-15T01:43:57;41.53;;;24.87;;
10162;SDS011;5123;52.556;13.384;2023-02-15T01:46:31;36.13;;;23.37;;
10162;SDS011;5123;52.556;13.384;2023-02-15T01:49:08;37.40;;;22.80;;
10162;SDS011;5123;52.556;13.384;2023-02-15T01:51:43;40.23;;;23.53;;
10162;SDS011;5123;52.556;13.384;2023-02-15T01:54:17;39.73;;;22.90;;
10162;SDS011;5123;52.556;13.384;2023-02-15T01:56:51;42.87;;;24.87;;
10162;SDS011;5123;52.556;13.384;2023-02-15T01:59:26;37.60;;;23.53;;
10162;SDS011;5123;52.556;13.384;2023-02-15T02:01:59;37.73;;;22.77;;
10162;SDS011;5123;52.556;13.384;2023-02-15T02:04:35;37.80;;;22.40;;
10162;SDS011;5123;52.556;13.384;2023-02-15T02:07:10;40.20;;;24.13;;
10162;SDS011;5123;52.556;13.384;2023-02-15T02:09:45;39.03;;;23.83;;
10162;SDS011;5123;52.556;13.384;2023-02-15T02:12:20;34.30;;;21.70;;
10162;SDS011;5123;52.556;13.384;2023-02-15T02:15:05;36.30;;;23.50;;
10162;SDS011;5123;52.556;13.384;2023-02-15T02:17:42;43.23;;;25.13;;
10162;SDS011;5123;52.556;13.384;2023-02-15T02:20:26;37.90;;;23.70;;
10162;SDS011;5123;52.556;13.384;2023-02-15T02:23:19;39.33;;;23.00;;
10162;SDS011;5123;52.556;13.384;2023-02-15T02:28:53;40.37;;;24.27;;
10162;SDS011;5123;52.556;13.384;2023-02-15T02:31:36;40.37;;;25.03;;
10162;SDS011;5123;52.556;13.384;2023-02-15T02:34:16;42.23;;;24.57;;
10162;SDS011;5123;52.556;13.384;2023-02-15T02:36:49;44.43;;;25.10;;
10162;SDS011;5123;52.556;13.384;2023-02-15T02:39:27;42.50;;;24.70;;
10162;SDS011;5123;52.556;13.384;2023-02-15T02:42:06;40.97;;;24.73;;
10162;SDS011;5123;52.556;13.384;2023-02-15T02:44:43;46.03;;;25.23;;
10162;SDS011;5123;52.556;13.384;2023-02-15T02:47:18;40.20;;;25.37;;
10162;SDS011;5123;52.556;13.384;2023-02-15T02:49:58;38.67;;;23.57;;
10162;SDS011;5123;52.556;13.384;2023-02-15T02:52:34;43.63;;;24.67;;
10162;SDS011;5123;52.556;13.384;2023-02-15T02:55:09;42.50;;;25.80;;
10162;SDS011;5123;52.556;13.384;2023-02-15T02:57:43;45.27;;;25.73;;
10162;SDS011;5123;52.556;13.384;2023-02-15T03:00:21;41.37;;;25.27;;
10162;SDS011;5123;52.556;13.384;2023-02-15T03:02:56;42.87;;;25.40;;
10162;SDS011;5123;52.556;13.384;2023-02-15T03:05:32;45.60;;;26.33;;
10162;SDS011;5123;52.556;13.384;2023-02-15T03:08:06;44.43;;;26.40;;
10162;SDS011;5123;52.556;13.384;2023-02-15T03:10:54;41.17;;;24.83;;
10162;SDS011;5123;52.556;13.384;2023-02-15T03:13:28;41.93;;;24.93;;
10162;SDS011;5123;52.556;13.384;2023-02-15T03:16:03;44.40;;;25.90;;
10162;SDS011;5123;52.556;13.384;2023-02-15T03:18:55;45.43;;;26.13;;
10162;SDS011;5123;52.556;13.384;2023-02-15T03:21:35;48.97;;;26.80;;
10162;SDS011;5123;52.556;13.384;2023-02-15T03:24:12;44.17;;;26.50;;
10162;SDS011;5123;52.556;13.384;2023-02-15T03:26:47;44.73;;;26.87;;
10162;SDS011;5123;52.556;13.384;2023-02-15T03:29:24;41.67;;;25.13;;
10162;SDS011;5123;52.556;13.384;2023-02-15T03:31:59;46.63;;;27.50;;
10162;SDS011;5123;52.556;13.384;2023-02-15T03:34:35;42.07;;;25.80;;
10162;SDS011;5123;52.556;13.384;2023-02-15T03:37:10;45.90;;;27.13;;
10162;SDS011;5123;52.556;13.384;2023-02-15T03:39:47;51.17;;;27.97;;
10162;SDS011;5123;52.556;13.384;2023-02-15T03:42:22;46.23;;;27.40;;
10162;SDS011;5123;52.556;13.384;2023-02-15T03:44:58;47.03;;;27.17;;
10162;SDS011;5123;52.556;13.384;2023-02-15T03:47:32;52.37;;;28.57;;
10162;SDS011;5123;52.556;13.384;2023-02-15T03:50:07;51.13;;;28.97;;
10162;SDS011;5123;52.556;13.384;2023-02-15T03:53:04;54.17;;;30.70;;
10162;SDS011;5123;52.556;13.384;2023-02-15T03:55:37;59.93;;;32.07;;
10162;SDS011;5123;52.556;13.384;2023-02-15T03:58:12;57.63;;;29.07;;
10162;SDS011;5123;52.556;13.384;2023-02-15T04:01:03;58.93;;;31.43;;
10162;SDS011;5123;52.556;13.384;2023-02-15T04:03:55;57.23;;;30.90;;
10162;SDS011;5123;52.556;13.384;2023-02-15T04:06:31;66.00;;;33.70;;
10162;SDS011;5123;52.556;13.384;2023-02-15T04:09:05;58.30;;;31.53;;
10162;SDS011;5123;52.556;13.384;2023-02-15T04:11:55;59.00;;;30.90;;
10162;SDS011;5123;52.556;13.384;2023-02-15T04:14:28;59.30;;;31.27;;
10162;SDS011;5123;52.556;13.384;2023-02-15T04:17:18;59.27;;;31.97;;
10162;SDS011;5123;52.556;13.384;2023-02-15T04:19:51;58.20;;;30.70;;
10162;SDS011;5123;52.556;13.384;2023-02-15T04:22:42;59.70;;;33.03;;
10162;SDS011;5123;52.556;13.384;2023-02-15T04:25:34;59.07;;;32.10;;
10162;SDS011;5123;52.556;13.384;2023-02-15T04:28:07;58.23;;;31.23;;
10162;SDS011;5123;52.556;13.384;2023-02-15T04:30:40;60.17;;;31.80;;
10162;SDS011;5123;52.556;13.384;2023-02-15T04:33:13;59.83;;;32.33;;
10162;SDS011;5123;52.556;13.384;2023-02-15T04:35:46;59.23;;;32.13;;
10162;SDS011;5123;52.556;13.384;2023-02-15T04:38:19;61.17;;;30.60;;
10162;SDS011;5123;52.556;13.384;2023-02-15T04:40:53;57.90;;;32.17;;
10162;SDS011;5123;52.556;13.384;2023-02-15T04:43:25;62.07;;;32.90;;
10162;SDS011;5123;52.556;13.384;2023-02-15T04:45:58;59.53;;;31.17;;
10162;SDS011;5123;52.556;13.384;2023-02-15T04:48:32;57.60;;;32.10;;
10162;SDS011;5123;52.556;13.384;2023-02-15T04:51:05;57.17;;;31.33;;
10162;SDS011;5123;52.556;13.384;2023-02-15T04:53:38;50.63;;;29.80;;
10162;SDS011;5123;52.556;13.384;2023-02-15T04:56:12;56.07;;;31.03;;
10162;SDS011;5123;52.556;13.384;2023-02-15T04:58:44;55.70;;;28.13;;
10162;SDS011;5123;52.556;13.384;2023-02-15T05:01:17;55.57;;;29.10;;
10162;SDS011;5123;52.556;13.384;2023-02-15T05:03:50;51.53;;;28.67;;
10162;SDS011;5123;52.556;13.384;2023-02-15T05:06:24;53.60;;;29.57;;
10162;SDS011;5123;52.556;13.384;2023-02-15T05:08:57;56.40;;;29.97;;
10162;SDS011;5123;52.556;13.384;2023-02-15T05:11:31;58.30;;;30.93;;
10162;SDS011;5123;52.556;13.384;2023-02-15T05:14:05;58.67;;;31.00;;
10162;SDS011;5123;52.556;13.384;2023-02-15T05:16:37;53.23;;;29.83;;
10162;SDS011;5123;52.556;13.384;2023-02-15T05:19:10;52.17;;;29.93;;
10162;SDS011;5123;52.556;13.384;2023-02-15T05:21:43;52.27;;;29.33;;
10162;SDS011;5123;52.556;13.384;2023-02-15T05:24:17;51.73;;;28.67;;
10162;SDS011;5123;52.556;13.384;2023-02-15T05:27:09;50.83;;;28.43;;
10162;SDS011;5123;52.556;13.384;2023-02-15T05:30:01;58.80;;;29.37;;
10162;SDS011;5123;52.556;13.384;2023-02-15T05:32:37;53.53;;;27.70;;
10162;SDS011;5123;52.556;13.384;2023-02-15T05:35:11;50.67;;;28.97;;
10162;SDS011;5123;52.556;13.384;2023-02-15T05:37:45;51.67;;;27.67;;
10162;SDS011;5123;52.556;13.384;2023-02-15T05:40:18;53.67;;;28.90;;
10162;SDS011;5123;52.556;13.384;2023-02-15T05:42:55;57.60;;;29.93;;
10162;SDS011;5123;52.556;13.384;2023-02-15T05:45:28;52.07;;;29.03;;
10162;SDS011;5123;52.556;13.384;2023-02-15T05:48:01;53.00;;;29.83;;
10162;SDS011;5123;52.556;13.384;2023-02-15T05:50:33;51.77;;;27.47;;
10162;SDS011;5123;52.556;13.384;2023-02-15T05:53:06;46.70;;;27.53;;
10162;SDS011;5123;52.556;13.384;2023-02-15T05:55:39;58.90;;;29.80;;
10162;SDS011;5123;52.556;13.384;2023-02-15T05:58:15;52.97;;;29.73;;
10162;SDS011;5123;52.556;13.384;2023-02-15T06:00:48;55.03;;;30.90;;
10162;SDS011;5123;52.556;13.384;2023-02-15T06:03:21;58.50;;;30.37;;
10162;SDS011;5123;52.556;13.384;2023-02-15T06:05:54;57.33;;;29.03;;
10162;SDS011;5123;52.556;13.384;2023-02-15T06:08:27;59.13;;;31.23;;
10162;SDS011;5123;52.556;13.384;2023-02-15T06:11:00;63.70;;;31.03;;
10162;SDS011;5123;52.556;13.384;2023-02-15T06:13:34;55.23;;;29.93;;
10162;SDS011;5123;52.556;13.384;2023-02-15T06:16:09;63.57;;;31.20;;
10162;SDS011;5123;52.556;13.384;2023-02-15T06:18:42;54.43;;;29.37;;
10162;SDS011;5123;52.556;13.384;2023-02-15T06:21:15;51.60;;;29.07;;
10162;SDS011;5123;52.556;13.384;2023-02-15T06:23:48;53.20;;;29.33;;
10162;SDS011;5123;52.556;13.384;2023-02-15T06:26:20;64.80;;;31.97;;
10162;SDS011;5123;52.556;13.384;2023-02-15T06:28:55;62.47;;;31.27;;
10162;SDS011;5123;52.556;13.384;2023-02-15T06:31:28;57.93;;;30.23;;
10162;SDS011;5123;52.556;13.384;2023-02-15T06:34:00;58.13;;;30.33;;
10162;SDS011;5123;52.556;13.384;2023-02-15T06:36:33;60.37;;;30.97;;
10162;SDS011;5123;52.556;13.384;2023-02-15T06:39:08;62.20;;;30.87;;
10162;SDS011;5123;52.556;13.384;2023-02-15T06:41:47;58.63;;;32.23;;
10162;SDS011;5123;52.556;13.384;2023-02-15T06:44:21;58.80;;;30.67;;
10162;SDS011;5123;52.556;13.384;2023-02-15T06:46:55;57.90;;;31.60;;
10162;SDS011;5123;52.556;13.384;2023-02-15T06:49:28;67.00;;;30.13;;
10162;SDS011;5123;52.556;13.384;2023-02-15T06:52:01;56.60;;;31.37;;
10162;SDS011;5123;52.556;13.384;2023-02-15T06:54:34;64.90;;;32.00;;
10162;SDS011;5123;52.556;13.384;2023-02-15T06:57:07;64.77;;;31.30;;
10162;SDS011;5123;52.556;13.384;2023-02-15T06:59:43;66.27;;;32.93;;
10162;SDS011;5123;52.556;13.384;2023-02-15T07:02:16;70.50;;;33.17;;
10162;SDS011;5123;52.556;13.384;2023-02-15T07:04:49;64.13;;;32.57;;
10162;SDS011;5123;52.556;13.384;2023-02-15T07:07:22;66.90;;;31.37;;
10162;SDS011;5123;52.556;13.384;2023-02-15T07:09:55;66.70;;;34.73;;
10162;SDS011;5123;52.556;13.384;2023-02-15T07:12:31;68.97;;;33.13;;
10162;SDS011;5123;52.556;13.384;2023-02-15T07:15:18;72.17;;;34.33;;
10162;SDS011;5123;52.556;13.384;2023-02-15T07:17:53;63.27;;;32.67;;
10162;SDS011;5123;52.556;13.384;2023-02-15T07:20:26;79.93;;;34.30;;
10162;SDS011;5123;52.556;13.384;2023-02-15T07:23:00;63.67;;;32.53;;
10162;SDS011;5123;52.556;13.384;2023-02-15T07:25:32;79.53;;;36.70;;
10162;SDS011;5123;52.556;13.384;2023-02-15T07:28:05;74.67;;;34.80;;
10162;SDS011;5123;52.556;13.384;2023-02-15T07:30:40;67.87;;;33.67;;
10162;SDS011;5123;52.556;13.384;2023-02-15T07:33:15;67.67;;;33.27;;
10162;SDS011;5123;52.556;13.384;2023-02-15T07:35:59;78.63;;;33.27;;
10162;SDS011;5123;52.556;13.384;2023-02-15T07:38:34;79.97;;;35.30;;
10162;SDS011;5123;52.556;13.384;2023-02-15T07:41:07;69.40;;;32.63;;
10162;SDS011;5123;52.556;13.384;2023-02-15T07:43:41;77.57;;;35.07;;
10162;SDS011;5123;52.556;13.384;2023-02-15T07:46:16;73.33;;;35.07;;
10162;SDS011;5123;52.556;13.384;2023-02-15T07:48:49;78.47;;;35.40;;
10162;SDS011;5123;52.556;13.384;2023-02-15T07:51:22;76.07;;;34.07;;
10162;SDS011;5123;52.556;13.384;2023-02-15T07:53:55;66.53;;;32.13;;
10162;SDS011;5123;52.556;13.384;2023-02-15T07:56:28;81.23;;;37.27;;
10162;SDS011;5123;52.556;13.384;2023-02-15T07:59:03;84.83;;;34.93;;
10162;SDS011;5123;52.556;13.384;2023-02-15T08:01:38;69.17;;;34.83;;
10162;SDS011;5123;52.556;13.384;2023-02-15T08:04:11;74.97;;;35.10;;
10162;SDS011;5123;52.556;13.384;2023-02-15T08:06:45;72.27;;;33.27;;
10162;SDS011;5123;52.556;13.384;2023-02-15T08:09:17;79.27;;;34.23;;
10162;SDS011;5123;52.556;13.384;2023-02-15T08:11:50;80.23;;;36.13;;
10162;SDS011;5123;52.556;13.384;2023-02-15T08:14:24;74.60;;;35.83;;
10162;SDS011;5123;52.556;13.384;2023-02-15T08:17:01;71.90;;;35.50;;
10162;SDS011;5123;52.556;13.384;2023-02-15T08:19:36;67.23;;;33.50;;
10162;SDS011;5123;52.556;13.384;2023-02-15T08:22:11;64.87;;;34.10;;
10162;SDS011;5123;52.556;13.384;2023-02-15T08:24:45;66.20;;;32.87;;
10162;SDS011;5123;52.556;13.384;2023-02-15T08:27:18;77.70;;;36.53;;
10162;SDS011;5123;52.556;13.384;2023-02-15T08:29:58;69.97;;;34.77;;
10162;SDS011;5123;52.556;13.384;2023-02-15T08:32:32;68.77;;;34.13;;
10162;SDS011;5123;52.556;13.384;2023-02-15T08:35:05;65.23;;;33.70;;
10162;SDS011;5123;52.556;13.384;2023-02-15T08:37:38;65.70;;;32.63;;
10162;SDS011;5123;52.556;13.384;2023-02-15T08:40:11;64.60;;;34.53;;
10162;SDS011;5123;52.556;13.384;2023-02-15T08:42:53;62.40;;;33.10;;
10162;SDS011;5123;52.556;13.384;2023-02-15T08:45:27;68.50;;;33.97;;
10162;SDS011;5123;52.556;13.384;2023-02-15T08:48:01;57.13;;;30.17;;
10162;SDS011;5123;52.556;13.384;2023-02-15T08:50:34;58.77;;;29.03;;
10162;SDS011;5123;52.556;13.384;2023-02-15T08:53:07;51.03;;;29.40;;
10162;SDS011;5123;52.556;13.384;2023-02-15T08:55:41;52.47;;;28.07;;
10162;SDS011;5123;52.556;13.384;2023-02-15T08:58:28;52.23;;;29.07;;
10162;SDS011;5123;52.556;13.384;2023-02-15T09:01:07;50.77;;;26.90;;
10162;SDS011;5123;52.556;13.384;2023-02-15T09:03:42;51.73;;;28.17;;
10162;SDS011;5123;52.556;13.384;2023-02-15T09:06:15;41.70;;;24.87;;
10162;SDS011;5123;52.556;13.384;2023-02-15T09:08:48;45.37;;;25.47;;
10162;SDS011;5123;52.556;13.384;2023-02-15T09:11:24;47.53;;;26.70;;
10162;SDS011;5123;52.556;13.384;2023-02-15T09:13:58;50.13;;;27.57;;
10162;SDS011;5123;52.556;13.384;2023-02-15T09:16:32;47.83;;;27.47;;
10162;SDS011;5123;52.556;13.384;2023-02-15T09:19:06;48.60;;;27.30;;
10162;SDS011;5123;52.556;13.384;2023-02-15T09:21:43;48.67;;;24.93;;
10162;SDS011;5123;52.556;13.384;2023-02-15T09:24:16;44.10;;;25.10;;
10162;SDS011;5123;52.556;13.384;2023-02-15T09:26:49;43.17;;;26.27;;
10162;SDS011;5123;52.556;13.384;2023-02-15T09:29:22;43.47;;;25.27;;
10162;SDS011;5123;52.556;13.384;2023-02-15T09:31:55;42.63;;;26.20;;
10162;SDS011;5123;52.556;13.384;2023-02-15T09:34:29;46.23;;;25.43;;
10162;SDS011;5123;52.556;13.384;2023-02-15T09:37:05;48.63;;;28.33;;
10162;SDS011;5123;52.556;13.384;2023-02-15T09:39:39;49.57;;;27.10;;
10162;SDS011;5123;52.556;13.384;2023-02-15T09:42:26;49.70;;;27.83;;
10162;SDS011;5123;52.556;13.384;2023-02-15T09:45:09;41.77;;;25.33;;
10162;SDS011;5123;52.556;13.384;2023-02-15T09:48:00;39.67;;;24.10;;
10162;SDS011;5123;52.556;13.384;2023-02-15T09:50:39;40.30;;;23.53;;
10162;SDS011;5123;52.556;13.384;2023-02-15T09:53:29;35.90;;;22.07;;
10162;SDS011;5123;52.556;13.384;2023-02-15T09:56:08;35.70;;;22.60;;
10162;SDS011;5123;52.556;13.384;2023-02-15T09:58:46;36.67;;;23.87;;
10162;SDS011;5123;52.556;13.384;2023-02-15T10:01:23;37.23;;;22.93;;
10162;SDS011;5123;52.556;13.384;2023-02-15T10:04:13;40.73;;;24.80;;
10162;SDS011;5123;52.556;13.384;2023-02-15T10:06:53;42.93;;;24.73;;
10162;SDS011;5123;52.556;13.384;2023-02-15T10:09:43;42.77;;;24.70;;
10162;SDS011;5123;52.556;13.384;2023-02-15T10:12:24;39.10;;;23.70;;
10162;SDS011;5123;52.556;13.384;2023-02-15T10:18:03;49.33;;;28.17;;
10162;SDS011;5123;52.556;13.384;2023-02-15T10:20:39;39.70;;;24.17;;
10162;SDS011;5123;52.556;13.384;2023-02-15T10:23:21;36.73;;;22.93;;
10162;SDS011;5123;52.556;13.384;2023-02-15T10:25:59;34.60;;;22.77;;
10162;SDS011;5123;52.556;13.384;2023-02-15T10:28:35;37.13;;;22.83;;
10162;SDS011;5123;52.556;13.384;2023-02-15T10:31:13;39.13;;;23.87;;
10162;SDS011;5123;52.556;13.384;2023-02-15T10:33:48;37.07;;;22.37;;
10162;SDS011;5123;52.556;13.384;2023-02-15T10:36:26;35.37;;;22.67;;
10162;SDS011;5123;52.556;13.384;2023-02-15T10:39:03;36.33;;;22.07;;
10162;SDS011;5123;52.556;13.384;2023-02-15T10:41:42;34.60;;;22.17;;
10162;SDS011;5123;52.556;13.384;2023-02-15T10:44:21;39.17;;;23.13;;
10162;SDS011;5123;52.556;13.384;2023-02-15T10:47:01;36.93;;;22.80;;
10162;SDS011;5123;52.556;13.384;2023-02-15T10:52:28;37.97;;;24.77;;
10162;SDS011;5123;52.556;13.384;2023-02-15T10:55:07;37.40;;;22.77;;
10162;SDS011;5123;52.556;13.384;2023-02-15T10:57:47;37.53;;;24.23;;
10162;SDS011;5123;52.556;13.384;2023-02-15T11:00:26;37.13;;;22.30;;
10162;SDS011;5123;52.556;13.384;2023-02-15T11:03:12;38.23;;;23.77;;
10162;SDS011;5123;52.556;13.384;2023-02-15T11:05:50;37.33;;;22.97;;
10162;SDS011;5123;52.556;13.384;2023-02-15T11:08:28;34.23;;;22.93;;
10162;SDS011;5123;52.556;13.384;2023-02-15T11:11:03;35.37;;;22.63;;
10162;SDS011;5123;52.556;13.384;2023-02-15T11:13:39;35.97;;;21.53;;
10162;SDS011;5123;52.556;13.384;2023-02-15T11:16:15;34.23;;;21.37;;
10162;SDS011;5123;52.556;13.384;2023-02-15T11:18:51;34.53;;;21.10;;
10162;SDS011;5123;52.556;13.384;2023-02-15T11:21:29;36.03;;;22.13;;
10162;SDS011;5123;52.556;13.384;2023-02-15T11:24:09;32.90;;;21.90;;
10162;SDS011;5123;52.556;13.384;2023-02-15T11:26:46;32.23;;;21.60;;
10162;SDS011;5123;52.556;13.384;2023-02-15T11:29:21;36.80;;;23.47;;
10162;SDS011;5123;52.556;13.384;2023-02-15T11:31:56;35.80;;;22.77;;
10162;SDS011;5123;52.556;13.384;2023-02-15T11:34:31;34.27;;;23.17;;
10162;SDS011;5123;52.556;13.384;2023-02-15T11:37:10;35.33;;;23.47;;
10162;SDS011;5123;52.556;13.384;2023-02-15T11:39:46;37.57;;;23.40;;
10162;SDS011;5123;52.556;13.384;2023-02-15T11:42:24;38.33;;;23.63;;
10162;SDS011;5123;52.556;13.384;2023-02-15T11:44:59;34.60;;;22.10;;
10162;SDS011;5123;52.556;13.384;2023-02-15T11:47:34;28.77;;;20.20;;
10162;SDS011;5123;52.556;13.384;2023-02-15T11:50:10;33.23;;;22.17;;
10162;SDS011;5123;52.556;13.384;2023-02-15T11:52:43;31.33;;;21.63;;
10162;SDS011;5123;52.556;13.384;2023-02-15T11:55:18;35.70;;;24.53;;
10162;SDS011;5123;52.556;13.384;2023-02-15T11:57:53;39.73;;;24.10;;
10162;SDS011;5123;52.556;13.384;2023-02-15T12:00:30;37.77;;;22.30;;
10162;SDS011;5123;52.556;13.384;2023-02-15T12:03:13;35.43;;;23.63;;
10162;SDS011;5123;52.556;13.384;2023-02-15T12:05:47;35.97;;;22.17;;
10162;SDS011;5123;52.556;13.384;2023-02-15T12:08:22;35.70;;;23.00;;
10162;SDS011;5123;52.556;13.384;2023-02-15T12:11:00;40.83;;;24.67;;
10162;SDS011;5123;52.556;13.384;2023-02-15T12:13:45;33.37;;;21.90;;
10162;SDS011;5123;52.556;13.384;2023-02-15T12:16:26;34.67;;;22.53;;
10162;SDS011;5123;52.556;13.384;2023-02-15T12:19:00;32.33;;;22.10;;
10162;SDS011;5123;52.556;13.384;2023-02-15T12:21:34;32.60;;;22.23;;
10162;SDS011;5123;52.556;13.384;2023-02-15T12:24:14;34.50;;;21.60;;
10162;SDS011;5123;52.556;13.384;2023-02-15T12:26:57;36.70;;;22.33;;
10162;SDS011;5123;52.556;13.384;2023-02-15T12:29:34;32.43;;;22.93;;
10162;SDS011;5123;52.556;13.384;2023-02-15T12:32:09;32.13;;;22.07;;
10162;SDS011;5123;52.556;13.384;2023-02-15T12:34:44;31.83;;;21.87;;
10162;SDS011;5123;52.556;13.384;2023-02-15T12:37:19;31.43;;;21.20;;
10162;SDS011;5123;52.556;13.384;2023-02-15T12:39:54;30.67;;;20.10;;
10162;SDS011;5123;52.556;13.384;2023-02-15T12:42:28;32.97;;;22.80;;
10162;SDS011;5123;52.556;13.384;2023-02-15T12:45:22;33.13;;;21.77;;
10162;SDS011;5123;52.556;13.384;2023-02-15T12:48:09;34.13;;;22.00;;
10162;SDS011;5123;52.556;13.384;2023-02-15T12:50:42;35.03;;;21.63;;
10162;SDS011;5123;52.556;13.384;2023-02-15T12:53:16;33.83;;;21.23;;
10162;SDS011;5123;52.556;13.384;2023-02-15T12:55:51;30.97;;;22.80;;
10162;SDS011;5123;52.556;13.384;2023-02-15T12:58:25;41.03;;;21.33;;
10162;SDS011;5123;52.556;13.384;2023-02-15T13:01:04;30.30;;;21.20;;
10162;SDS011;5123;52.556;13.384;2023-02-15T13:03:56;33.03;;;21.93;;
10162;SDS011;5123;52.556;13.384;2023-02-15T13:06:32;34.63;;;21.93;;
10162;SDS011;5123;52.556;13.384;2023-02-15T13:09:07;35.80;;;24.27;;
10162;SDS011;5123;52.556;13.384;2023-02-15T13:11:45;52.30;;;32.73;;
10162;SDS011;5123;52.556;13.384;2023-02-15T13:14:19;58.63;;;40.87;;
10162;SDS011;5123;52.556;13.384;2023-02-15T13:16:56;39.97;;;23.87;;
10162;SDS011;5123;52.556;13.384;2023-02-15T13:19:36;32.97;;;22.17;;
10162;SDS011;5123;52.556;13.384;2023-02-15T13:22:10;34.97;;;24.20;;
10162;SDS011;5123;52.556;13.384;2023-02-15T13:24:46;33.67;;;23.67;;
10162;SDS011;5123;52.556;13.384;2023-02-15T13:27:24;28.10;;;21.30;;
10162;SDS011;5123;52.556;13.384;2023-02-15T13:29:58;31.70;;;20.57;;
10162;SDS011;5123;52.556;13.384;2023-02-15T13:32:35;34.77;;;21.60;;
10162;SDS011;5123;52.556;13.384;2023-02-15T13:35:10;35.70;;;22.33;;
10162;SDS011;5123;52.556;13.384;2023-02-15T13:40:40;32.73;;;21.80;;
10162;SDS011;5123;52.556;13.384;2023-02-15T13:43:25;33.00;;;20.30;;
10162;SDS011;5123;52.556;13.384;2023-02-15T13:46:06;28.37;;;21.07;;
10162;SDS011;5123;52.556;13.384;2023-02-15T13:48:44;27.03;;;19.97;;
10162;SDS011;5123;52.556;13.384;2023-02-15T13:51:24;32.53;;;20.33;;
10162;SDS011;5123;52.556;13.384;2023-02-15T13:54:07;30.83;;;20.63;;
10162;SDS011;5123;52.556;13.384;2023-02-15T13:56:47;31.67;;;21.03;;
10162;SDS011;5123;52.556;13.384;2023-02-15T13:59:28;33.10;;;20.73;;
10162;SDS011;5123;52.556;13.384;2023-02-15T14:02:18;27.73;;;20.43;;
10162;SDS011;5123;52.556;13.384;2023-02-15T14:05:04;31.57;;;21.03;;
10162;SDS011;5123;52.556;13.384;2023-02-15T14:07:47;31.23;;;19.47;;
10162;SDS011;5123;52.556;13.384;2023-02-15T14:16:09;29.47;;;19.87;;
10162;SDS011;5123;52.556;13.384;2023-02-15T14:18:46;28.53;;;21.17;;
10162;SDS011;5123;52.556;13.384;2023-02-15T14:21:24;33.63;;;20.60;;
10162;SDS011;5123;52.556;13.384;2023-02-15T14:24:05;32.30;;;22.33;;
10162;SDS011;5123;52.556;13.384;2023-02-15T14:26:48;29.73;;;21.83;;
10162;SDS011;5123;52.556;13.384;2023-02-15T14:29:25;32.50;;;21.27;;
10162;SDS011;5123;52.556;13.384;2023-02-15T14:32:00;28.50;;;19.90;;
10162;SDS011;5123;52.556;13.384;2023-02-15T14:34:36;30.43;;;20.77;;
10162;SDS011;5123;52.556;13.384;2023-02-15T14:37:16;29.50;;;19.47;;
10162;SDS011;5123;52.556;13.384;2023-02-15T14:39:52;29.27;;;18.90;;
10162;SDS011;5123;52.556;13.384;2023-02-15T14:42:48;27.03;;;19.33;;
10162;SDS011;5123;52.556;13.384;2023-02-15T14:45:26;28.27;;;18.73;;
10162;SDS011;5123;52.556;13.384;2023-02-15T14:48:07;30.37;;;19.07;;
10162;SDS011;5123;52.556;13.384;2023-02-15T14:50:43;27.40;;;18.83;;
10162;SDS011;5123;52.556;13.384;2023-02-15T14:56:21;22.87;;;18.13;;
10162;SDS011;5123;52.556;13.384;2023-02-15T14:58:55;25.87;;;19.20;;
10162;SDS011;5123;52.556;13.384;2023-02-15T15:01:29;26.80;;;20.00;;
10162;SDS011;5123;52.556;13.384;2023-02-15T15:04:07;30.70;;;20.47;;
10162;SDS011;5123;52.556;13.384;2023-02-15T15:06:41;35.57;;;24.73;;
10162;SDS011;5123;52.556;13.384;2023-02-15T15:09:19;39.47;;;27.50;;
10162;SDS011;5123;52.556;13.384;2023-02-15T15:12:12;43.73;;;31.17;;
10162;SDS011;5123;52.556;13.384;2023-02-15T15:14:46;28.97;;;19.10;;
10162;SDS011;5123;52.556;13.384;2023-02-15T15:20:11;32.33;;;21.27;;
10162;SDS011;5123;52.556;13.384;2023-02-15T15:22:45;28.27;;;20.67;;
10162;SDS011;5123;52.556;13.384;2023-02-15T15:31:17;51.53;;;38.00;;
10162;SDS011;5123;52.556;13.384;2023-02-15T15:39:44;36.47;;;25.73;;
10162;SDS011;5123;52.556;13.384;2023-02-15T15:42:27;30.83;;;23.37;;
10162;SDS011;5123;52.556;13.384;2023-02-15T15:47:57;30.10;;;21.33;;
10162;SDS011;5123;52.556;13.384;2023-02-15T15:50:38;36.13;;;24.47;;
10162;SDS011;5123;52.556;13.384;2023-02-15T15:53:15;49.17;;;35.80;;